Time;durP1;ratioP1;P1;durP2;ratioP2;P2;SDS_P1;SDS_P2;PMS_P1;PMS_P2;Temp;Humidity;BMP_temperature;BMP_pressure;BME280_temperature;BME280_humidity;BME280_pressure;Samples;Min_cycle;Max_cycle;Signal;HPM_P1;HPM_P2
2022/12/21 00:02:02;;;;;;;23.02;12.77;;;7.20;99.90;;;;;;5113254;28;20457;-74
2022/12/21 00:04:28;;;;;;;22.90;12.35;;;7.20;99.90;;;;;;5111292;28;20147;-74
2022/12/21 00:06:53;;;;;;;22.70;13.05;;;7.20;99.90;;;;;;5111658;28;20460;-74
2022/12/21 00:09:19;;;;;;;26.97;14.07;;;7.20;99.90;;;;;;5111130;28;20024;-78
2022/12/21 00:11:44;;;;;;;30.73;13.90;;;7.20;99.90;;;;;;5115237;28;20098;-75
2022/12/21 00:14:10;;;;;;;35.20;16.57;;;7.20;99.90;;;;;;5113320;28;20118;-74
2022/12/21 00:16:38;;;;;;;23.70;12.83;;;7.30;99.90;;;;;;5110894;28;20032;-74
2022/12/21 00:19:05;;;;;;;25.00;12.43;;;7.30;99.90;;;;;;5111882;28;20054;-74
2022/12/21 00:21:33;;;;;;;20.07;12.10;;;7.30;99.90;;;;;;5111154;28;20023;-74
2022/12/21 00:23:59;;;;;;;22.57;12.10;;;7.30;99.90;;;;;;5111268;28;20023;-74
2022/12/21 00:26:31;;;;;;;21.67;11.47;;;7.40;99.90;;;;;;5110610;28;20032;-75
2022/12/21 00:28:57;;;;;;;19.90;11.32;;;7.40;99.90;;;;;;5112766;28;20503;-74
2022/12/21 00:31:32;;;;;;;22.53;12.10;;;7.40;99.90;;;;;;5110819;28;20499;-77
2022/12/21 00:33:58;;;;;;;18.67;10.63;;;7.50;99.90;;;;;;5111028;28;20032;-73
2022/12/21 00:36:26;;;;;;;20.97;11.30;;;7.40;99.90;;;;;;5110528;28;20028;-75
2022/12/21 00:38:52;;;;;;;24.20;11.88;;;7.50;99.90;;;;;;5114566;28;20031;-74
2022/12/21 00:41:20;;;;;;;25.63;11.87;;;7.50;99.90;;;;;;5116798;28;20054;-74
2022/12/21 00:43:46;;;;;;;23.63;12.37;;;7.50;99.90;;;;;;5116273;28;20031;-74
2022/12/21 00:46:19;;;;;;;23.87;12.00;;;7.50;99.90;;;;;;5114961;28;20142;-74
2022/12/21 00:48:45;;;;;;;20.77;11.27;;;7.50;99.90;;;;;;5114672;28;20031;-74
2022/12/21 00:51:13;;;;;;;19.75;11.25;;;7.60;99.90;;;;;;5116523;28;20019;-74
2022/12/21 00:53:39;;;;;;;17.60;11.00;;;7.60;99.90;;;;;;5113974;28;20032;-74
2022/12/21 00:56:06;;;;;;;18.80;10.83;;;7.50;99.90;;;;;;5114680;28;20032;-74
2022/12/21 00:58:34;;;;;;;20.73;11.07;;;7.60;99.90;;;;;;5114105;28;20463;-74
2022/12/21 01:01:07;;;;;;;19.90;10.82;;;7.60;99.90;;;;;;5116202;28;20026;-74
2022/12/21 01:03:33;;;;;;;18.37;11.07;;;7.60;99.90;;;;;;5115484;28;20051;-74
2022/12/21 01:05:59;;;;;;;18.40;11.07;;;7.70;99.90;;;;;;5116308;28;20055;-74
2022/12/21 01:08:25;;;;;;;16.50;9.93;;;7.70;99.90;;;;;;5115700;28;20084;-76
2022/12/21 01:10:59;;;;;;;20.30;9.95;;;7.70;99.90;;;;;;5114697;28;20031;-75
2022/12/21 01:13:25;;;;;;;21.00;9.87;;;7.70;99.90;;;;;;5114229;28;20050;-77
2022/12/21 01:15:51;;;;;;;20.30;9.85;;;7.80;99.90;;;;;;5114555;28;20032;-74
2022/12/21 01:18:17;;;;;;;17.95;10.13;;;7.80;99.90;;;;;;5114306;28;20051;-74
2022/12/21 01:20:49;;;;;;;16.90;9.60;;;7.80;99.90;;;;;;5114074;28;20050;-74
2022/12/21 01:23:15;;;;;;;18.77;9.50;;;7.90;99.90;;;;;;5115755;28;20031;-74
2022/12/21 01:25:42;;;;;;;15.57;9.60;;;7.90;99.90;;;;;;5114892;28;20028;-75
2022/12/21 01:28:08;;;;;;;15.18;9.05;;;7.90;99.90;;;;;;5113952;28;20063;-75
2022/12/21 01:30:34;;;;;;;15.18;8.82;;;8.00;99.90;;;;;;5115212;28;20055;-74
2022/12/21 01:32:59;;;;;;;14.90;8.57;;;8.00;99.90;;;;;;5114462;28;20020;-74
2022/12/21 01:35:25;;;;;;;13.93;7.88;;;8.10;99.90;;;;;;5114033;28;20035;-77
2022/12/21 01:37:51;;;;;;;12.25;7.97;;;8.10;99.90;;;;;;5114180;28;20472;-74
2022/12/21 01:40:16;;;;;;;14.45;7.50;;;8.20;99.90;;;;;;5115751;28;20024;-74
2022/12/21 01:42:42;;;;;;;13.77;6.85;;;8.30;99.90;;;;;;5114931;28;20103;-74
2022/12/21 01:45:26;;;;;;;12.25;6.43;;;8.30;99.90;;;;;;5114081;28;20385;-74
2022/12/21 01:48:14;;;;;;;13.40;6.28;;;8.40;99.90;;;;;;5115126;28;20469;-75
2022/12/21 01:50:56;;;;;;;11.18;5.47;;;8.60;99.90;;;;;;5114786;28;20028;-74
2022/12/21 01:53:27;;;;;;;9.05;5.10;;;8.60;99.90;;;;;;5116623;28;20028;-74
2022/12/21 01:55:55;;;;;;;11.20;5.05;;;8.80;99.90;;;;;;5113709;28;20119;-74
2022/12/21 01:58:25;;;;;;;9.65;4.35;;;8.90;99.90;;;;;;5113776;28;20055;-74
2022/12/21 02:00:51;;;;;;;6.55;4.15;;;8.90;99.90;;;;;;5113314;28;20076;-74
2022/12/21 02:03:21;;;;;;;8.13;3.95;;;9.00;99.90;;;;;;5114529;28;20027;-74
2022/12/21 02:06:01;;;;;;;7.93;3.55;;;9.10;99.90;;;;;;5112421;28;20031;-74
2022/12/21 02:08:27;;;;;;;9.00;3.40;;;9.20;99.90;;;;;;5114249;28;20023;-78
2022/12/21 02:10:54;;;;;;;6.18;2.88;;;9.20;99.90;;;;;;5113033;28;20388;-74
2022/12/21 02:13:20;;;;;;;8.57;3.15;;;9.30;99.90;;;;;;5112747;28;20542;-74
2022/12/21 02:15:58;;;;;;;5.40;2.53;;;9.40;99.90;;;;;;5112616;28;20114;-74
2022/12/21 02:19:00;;;;;;;2.83;1.90;;;9.50;99.90;;;;;;5114728;28;20488;-74
2022/12/21 02:21:26;;;;;;;4.32;2.00;;;9.60;99.90;;;;;;5112948;28;20113;-77
2022/12/21 02:24:28;;;;;;;5.43;2.13;;;9.70;99.90;;;;;;5112323;28;20063;-74
2022/12/21 02:27:17;;;;;;;;;;;9.70;99.90;;;;;;5112844;28;20033;-74
2022/12/21 02:30:01;;;;;;;4.13;2.10;;;9.70;99.90;;;;;;5083654;27;19904;-76
2022/12/21 02:32:46;;;;;;;4.82;2.35;;;9.70;99.90;;;;;;5112730;28;20030;-78
2022/12/21 02:35:55;;;;;;;7.28;2.10;;;9.80;99.90;;;;;;5113223;28;20039;-74
2022/12/21 02:38:27;;;;;;;4.20;1.88;;;9.80;99.90;;;;;;5098264;28;20085;-74
2022/12/21 02:41:04;;;;;;;5.97;1.90;;;9.80;99.90;;;;;;5113668;28;20019;-74
2022/12/21 02:47:08;;;;;;;4.63;1.90;;;9.80;99.90;;;;;;5113402;28;20082;-77
2022/12/21 02:49:59;;;;;;;4.80;1.67;;;9.90;99.90;;;;;;5111954;28;20059;-75
2022/12/21 02:52:46;;;;;;;3.65;1.60;;;9.90;99.90;;;;;;5102366;28;20064;-74
2022/12/21 02:55:13;;;;;;;2.05;1.40;;;10.00;99.90;;;;;;5113963;27;20081;-74
2022/12/21 02:57:41;;;;;;;5.38;2.00;;;10.00;99.90;;;;;;5111807;28;20376;-74
2022/12/21 03:00:12;;;;;;;2.83;2.03;;;10.00;99.90;;;;;;5113667;28;20024;-74
2022/12/21 03:02:38;;;;;;;2.75;1.80;;;10.00;99.90;;;;;;5112127;28;20414;-74
2022/12/21 03:05:41;;;;;;;5.78;1.58;;;10.00;99.90;;;;;;5113733;28;20027;-74
2022/12/21 03:08:12;;;;;;;7.03;2.10;;;10.00;99.90;;;;;;5113774;28;20456;-74
2022/12/21 03:10:56;;;;;;;4.72;1.77;;;10.00;99.90;;;;;;5113124;28;20023;-74
2022/12/21 03:13:31;;;;;;;2.90;1.67;;;10.00;99.90;;;;;;5112199;28;20508;-74
2022/12/21 03:16:16;;;;;;;3.90;1.73;;;10.00;99.90;;;;;;5112992;28;20035;-74
2022/12/21 03:18:53;;;;;;;2.50;1.40;;;10.10;99.90;;;;;;5111076;28;20523;-75
2022/12/21 03:21:43;;;;;;;4.07;1.50;;;10.10;99.90;;;;;;5113454;28;20107;-75
2022/12/21 03:24:27;;;;;;;4.28;1.80;;;10.10;99.90;;;;;;5111883;28;20480;-74
2022/12/21 03:26:59;;;;;;;4.53;1.40;;;10.10;99.90;;;;;;5111230;28;20012;-74
2022/12/21 03:29:30;;;;;;;4.15;1.50;;;10.10;99.90;;;;;;5111857;28;20031;-74
2022/12/21 03:32:03;;;;;;;2.90;1.58;;;10.10;99.90;;;;;;5112798;28;20118;-74
2022/12/21 03:34:44;;;;;;;4.45;1.50;;;10.10;99.90;;;;;;5113153;28;20114;-75
2022/12/21 03:37:18;;;;;;;3.03;1.58;;;10.10;99.90;;;;;;5113052;28;20023;-74
2022/12/21 03:39:56;;;;;;;5.28;1.60;;;10.10;99.90;;;;;;5112830;28;20027;-74
2022/12/21 03:42:28;;;;;;;3.15;1.40;;;10.20;99.90;;;;;;5112105;28;20135;-74
2022/12/21 03:44:57;;;;;;;2.70;1.48;;;10.20;99.90;;;;;;5111117;28;20364;-74
2022/12/21 03:48:09;;;;;;;4.10;1.30;;;10.20;99.90;;;;;;5111512;28;20028;-74
2022/12/21 03:50:40;;;;;;;3.63;1.40;;;10.20;99.90;;;;;;5106033;28;20050;-78
2022/12/21 03:53:47;;;;;;;4.85;1.33;;;10.20;99.90;;;;;;5111665;28;20024;-74
2022/12/21 03:56:21;;;;;;;2.33;1.27;;;10.20;99.90;;;;;;5111991;28;20071;-74
2022/12/21 03:58:47;;;;;;;6.70;1.70;;;10.20;99.90;;;;;;5111376;28;20030;-74
2022/12/21 04:01:34;;;;;;;3.17;1.40;;;10.20;99.90;;;;;;5111803;28;20023;-74
2022/12/21 04:04:17;;;;;;;4.38;1.20;;;10.20;99.90;;;;;;5111496;28;20027;-74
2022/12/21 04:06:44;;;;;;;4.35;1.35;;;10.20;99.90;;;;;;5110992;28;20111;-74
2022/12/21 04:09:09;;;;;;;3.22;1.50;;;10.20;99.90;;;;;;5111651;28;20380;-74
2022/12/21 04:14:21;;;;;;;5.57;1.40;;;10.20;99.90;;;;;;5116829;28;20127;-74
2022/12/21 04:16:47;;;;;;;4.53;1.30;;;10.20;99.90;;;;;;5114995;28;20044;-74
2022/12/21 04:21:56;;;;;;;1.25;1.15;;;10.30;99.90;;;;;;5115987;28;20038;-74
2022/12/21 04:29:53;;;;;;;4.25;1.70;;;10.30;99.90;;;;;;5116042;28;20619;-75
2022/12/21 04:32:19;;;;;;;1.48;1.20;;;10.30;99.90;;;;;;5115299;28;20114;-75
2022/12/21 04:34:45;;;;;;;2.45;1.40;;;10.30;99.90;;;;;;5114644;28;20084;-74
2022/12/21 04:39:54;;;;;;;2.75;1.60;;;10.30;99.90;;;;;;5115998;28;20183;-74
2022/12/21 04:42:20;;;;;;;2.72;1.35;;;10.30;99.90;;;;;;5115097;28;20129;-74
2022/12/21 04:44:45;;;;;;;2.88;1.58;;;10.30;99.90;;;;;;5114350;28;20035;-74
2022/12/21 04:47:11;;;;;;;4.72;1.65;;;10.30;99.90;;;;;;5115232;28;20513;-74
2022/12/21 04:49:37;;;;;;;6.78;1.60;;;10.30;99.90;;;;;;5114397;28;20020;-79
2022/12/21 04:52:02;;;;;;;3.10;1.50;;;10.30;99.90;;;;;;5115908;28;20030;-74
2022/12/21 04:54:28;;;;;;;3.65;1.50;;;10.30;99.90;;;;;;5114481;28;20411;-74
2022/12/21 04:56:53;;;;;;;5.05;1.67;;;10.30;99.90;;;;;;5114048;28;20030;-74
2022/12/21 04:59:19;;;;;;;3.08;1.45;;;10.30;99.90;;;;;;5114623;28;20020;-74
2022/12/21 05:01:45;;;;;;;4.40;2.03;;;10.30;99.90;;;;;;5114220;28;20084;-74
2022/12/21 05:04:10;;;;;;;4.28;1.65;;;10.30;99.90;;;;;;5114916;28;20476;-74
2022/12/21 05:06:36;;;;;;;3.15;1.60;;;10.30;99.90;;;;;;5114709;28;20023;-79
2022/12/21 05:09:02;;;;;;;5.93;1.70;;;10.30;99.90;;;;;;5114172;28;20449;-74
2022/12/21 05:11:28;;;;;;;4.35;1.75;;;10.30;99.90;;;;;;5114578;28;20110;-74
2022/12/21 05:13:53;;;;;;;3.67;1.80;;;10.30;99.90;;;;;;5115437;28;20169;-74
2022/12/21 05:16:21;;;;;;;4.47;1.77;;;10.30;99.90;;;;;;5114419;28;20031;-74
2022/12/21 05:18:52;;;;;;;3.40;1.63;;;10.30;99.90;;;;;;5091587;28;20504;-74
2022/12/21 05:21:17;;;;;;;3.30;1.73;;;10.30;99.90;;;;;;5113078;28;20047;-74
2022/12/21 05:23:44;;;;;;;3.33;1.80;;;10.30;99.90;;;;;;5108734;28;20102;-75
2022/12/21 05:26:10;;;;;;;2.92;1.58;;;10.30;99.90;;;;;;5109738;28;20030;-75
2022/12/21 05:28:35;;;;;;;6.20;1.50;;;10.30;99.90;;;;;;5097177;28;20114;-75
2022/12/21 05:31:05;;;;;;;3.17;1.63;;;10.40;99.90;;;;;;5111300;28;20103;-74
2022/12/21 05:33:31;;;;;;;3.50;1.50;;;10.30;99.90;;;;;;5113926;28;20047;-74
2022/12/21 05:36:00;;;;;;;3.65;1.80;;;10.30;99.90;;;;;;5097260;28;20048;-74
2022/12/21 05:38:25;;;;;;;4.68;1.75;;;10.40;99.90;;;;;;5101183;28;20038;-74
2022/12/21 05:40:51;;;;;;;3.17;1.52;;;10.30;99.90;;;;;;5093132;28;20024;-74
2022/12/21 05:43:17;;;;;;;3.58;1.48;;;10.40;99.90;;;;;;5094939;28;20500;-75
2022/12/21 05:45:43;;;;;;;4.90;1.63;;;10.40;99.90;;;;;;5105118;28;20039;-74
2022/12/21 05:48:09;;;;;;;3.35;1.52;;;10.40;99.90;;;;;;5102145;28;20054;-75
2022/12/21 05:50:40;;;;;;;2.90;1.45;;;10.40;99.90;;;;;;5107352;28;20052;-74
2022/12/21 05:53:07;;;;;;;2.67;1.60;;;10.30;99.90;;;;;;5093671;28;20024;-74
2022/12/21 05:55:33;;;;;;;3.10;1.67;;;10.30;99.90;;;;;;5094870;28;20040;-74
2022/12/21 05:57:59;;;;;;;2.58;2.00;;;10.30;99.90;;;;;;5110482;28;20038;-74
2022/12/21 06:00:25;;;;;;;3.92;1.70;;;10.30;99.90;;;;;;5113635;28;20391;-74
2022/12/21 06:02:50;;;;;;;8.38;2.17;;;10.30;99.90;;;;;;5113203;28;20023;-74
2022/12/21 06:05:16;;;;;;;5.70;2.25;;;10.40;99.90;;;;;;5103093;28;20078;-76
2022/12/21 06:07:42;;;;;;;2.50;1.80;;;10.40;99.90;;;;;;5093656;28;20027;-77
2022/12/21 06:10:08;;;;;;;4.00;2.30;;;10.40;99.90;;;;;;5093109;28;20031;-74
2022/12/21 06:12:34;;;;;;;5.20;2.05;;;10.30;99.90;;;;;;5097389;28;20030;-74
2022/12/21 06:15:00;;;;;;;3.90;1.75;;;10.30;99.90;;;;;;5105949;28;20039;-74
2022/12/21 06:17:27;;;;;;;5.88;2.30;;;10.40;99.90;;;;;;5099865;28;20051;-74
2022/12/21 06:19:52;;;;;;;5.78;1.55;;;10.30;99.90;;;;;;5096656;28;20031;-74
2022/12/21 06:22:18;;;;;;;3.85;1.55;;;10.40;99.90;;;;;;5104445;28;20024;-74
2022/12/21 06:24:43;;;;;;;3.13;1.52;;;10.40;99.90;;;;;;5098583;28;20054;-75
2022/12/21 06:27:09;;;;;;;5.20;1.80;;;10.30;99.90;;;;;;5112913;28;20492;-74
2022/12/21 06:29:35;;;;;;;4.95;2.00;;;10.40;99.90;;;;;;5095892;28;20106;-74
2022/12/21 06:32:00;;;;;;;6.32;2.30;;;10.30;99.90;;;;;;5108315;28;20612;-74
2022/12/21 06:34:26;;;;;;;3.95;1.90;;;10.40;99.90;;;;;;5108934;28;20056;-74
2022/12/21 06:36:52;;;;;;;2.97;1.70;;;10.40;99.90;;;;;;5091972;28;20020;-75
2022/12/21 06:39:18;;;;;;;3.22;1.95;;;10.40;99.90;;;;;;5092604;28;20020;-74
2022/12/21 06:41:43;;;;;;;4.20;1.67;;;10.40;99.90;;;;;;5107065;28;20030;-75
2022/12/21 06:44:09;;;;;;;3.17;1.50;;;10.40;99.90;;;;;;5104523;28;20370;-74
2022/12/21 06:46:35;;;;;;;4.38;1.92;;;10.40;99.90;;;;;;5112133;28;20039;-75
2022/12/21 06:49:00;;;;;;;4.63;1.65;;;10.40;99.90;;;;;;5104997;28;20016;-74
2022/12/21 06:51:27;;;;;;;5.57;1.95;;;10.40;99.90;;;;;;5113724;28;20048;-74
2022/12/21 06:53:53;;;;;;;3.85;1.83;;;10.40;99.90;;;;;;5096504;28;20115;-74
2022/12/21 06:56:21;;;;;;;3.33;1.67;;;10.40;99.90;;;;;;5094426;28;20119;-74
2022/12/21 06:58:49;;;;;;;4.35;1.70;;;10.40;99.90;;;;;;5107088;28;20019;-74
2022/12/21 07:01:19;;;;;;;4.43;1.70;;;10.40;99.90;;;;;;5101241;28;20020;-74
2022/12/21 07:03:45;;;;;;;5.15;1.92;;;10.40;99.90;;;;;;5109714;28;20035;-76
2022/12/21 07:06:13;;;;;;;3.17;2.05;;;10.40;99.90;;;;;;5109977;28;20115;-74
2022/12/21 07:08:38;;;;;;;4.93;1.63;;;10.40;99.90;;;;;;5098164;28;20015;-74
2022/12/21 07:11:07;;;;;;;6.30;2.55;;;10.40;99.90;;;;;;5103429;28;20032;-74
2022/12/21 07:13:37;;;;;;;4.85;1.75;;;10.40;99.90;;;;;;5093528;28;20476;-74
2022/12/21 07:16:03;;;;;;;3.63;1.70;;;10.50;99.90;;;;;;5091039;28;20034;-74
2022/12/21 07:18:29;;;;;;;3.85;1.70;;;10.40;99.90;;;;;;5105772;28;20051;-74
2022/12/21 07:21:08;;;;;;;4.72;1.80;;;10.50;99.90;;;;;;5101773;28;20110;-74
2022/12/21 07:23:36;;;;;;;4.78;2.00;;;10.50;99.90;;;;;;5099263;28;20047;-74
2022/12/21 07:26:06;;;;;;;5.10;2.10;;;10.50;99.90;;;;;;5107317;28;20027;-74
2022/12/21 07:28:31;;;;;;;2.90;1.50;;;10.50;99.90;;;;;;5091105;28;20028;-74
2022/12/21 07:31:08;;;;;;;4.13;1.70;;;10.50;99.90;;;;;;5092125;28;20027;-74
2022/12/21 07:33:35;;;;;;;3.78;1.50;;;10.50;99.90;;;;;;5092931;28;20027;-74
2022/12/21 07:36:03;;;;;;;3.95;1.90;;;10.50;99.90;;;;;;5107765;28;20031;-74
2022/12/21 07:38:30;;;;;;;4.07;1.50;;;10.50;99.90;;;;;;5091277;28;20024;-74
2022/12/21 07:40:57;;;;;;;5.13;1.40;;;10.60;99.90;;;;;;5107730;28;20031;-74
2022/12/21 07:43:22;;;;;;;4.03;1.63;;;10.60;99.90;;;;;;5108399;28;20460;-75
2022/12/21 07:45:48;;;;;;;2.95;1.40;;;10.60;99.90;;;;;;5090983;28;20127;-75
2022/12/21 07:48:13;;;;;;;2.70;1.50;;;10.60;99.90;;;;;;5103245;28;20452;-74
2022/12/21 07:50:39;;;;;;;7.50;1.60;;;10.60;99.90;;;;;;5111756;28;20024;-74
2022/12/21 07:53:04;;;;;;;4.78;1.50;;;10.60;99.90;;;;;;5102035;28;20023;-74
2022/12/21 07:55:31;;;;;;;4.18;1.77;;;10.60;99.90;;;;;;5104077;28;20028;-74
2022/12/21 07:57:57;;;;;;;6.78;1.80;;;10.60;99.90;;;;;;5112092;28;20515;-74
2022/12/21 08:00:22;;;;;;;2.80;1.42;;;10.50;99.90;;;;;;5094540;28;20110;-75
2022/12/21 08:02:50;;;;;;;4.82;1.50;;;10.60;99.90;;;;;;5104315;28;20369;-74
2022/12/21 08:05:17;;;;;;;3.55;1.48;;;10.60;99.90;;;;;;5092258;28;20032;-75
2022/12/21 08:07:43;;;;;;;6.57;1.60;;;10.60;99.90;;;;;;5106587;28;20024;-76
2022/12/21 08:10:09;;;;;;;2.80;1.90;;;10.60;99.90;;;;;;5112353;28;20114;-75
2022/12/21 08:12:35;;;;;;;5.22;2.00;;;10.60;99.90;;;;;;5110710;28;20437;-75
2022/12/21 08:15:00;;;;;;;4.65;2.20;;;10.60;99.90;;;;;;5101838;28;20114;-75
2022/12/21 08:17:26;;;;;;;8.20;2.15;;;10.60;99.90;;;;;;5098252;28;20052;-75
2022/12/21 08:19:51;;;;;;;3.17;1.90;;;10.60;99.90;;;;;;5110525;28;20110;-75
2022/12/21 08:22:17;;;;;;;2.45;1.48;;;10.60;99.90;;;;;;5095381;28;20410;-74
2022/12/21 08:24:43;;;;;;;6.82;1.83;;;10.60;99.90;;;;;;5111295;28;20031;-75
2022/12/21 08:27:08;;;;;;;4.70;1.80;;;10.60;99.90;;;;;;5111497;28;20028;-75
2022/12/21 08:29:34;;;;;;;4.63;1.80;;;10.60;99.90;;;;;;5112610;28;20047;-75
2022/12/21 08:31:59;;;;;;;4.30;1.83;;;10.60;99.90;;;;;;5094341;28;20389;-75
2022/12/21 08:34:25;;;;;;;4.28;1.73;;;10.60;99.90;;;;;;5090996;28;20233;-75
2022/12/21 08:36:50;;;;;;;5.68;1.58;;;10.60;99.90;;;;;;5097209;28;20376;-75
2022/12/21 08:39:16;;;;;;;3.42;1.63;;;10.60;99.90;;;;;;5111328;28;20035;-74
2022/12/21 08:41:41;;;;;;;5.05;1.80;;;10.70;99.90;;;;;;5111434;28;20084;-74
2022/12/21 08:44:07;;;;;;;4.15;1.92;;;10.70;99.90;;;;;;5094583;28;20024;-74
2022/12/21 08:46:33;;;;;;;2.80;1.50;;;10.70;99.90;;;;;;5094968;28;20051;-75
2022/12/21 08:48:58;;;;;;;6.13;1.65;;;10.70;99.90;;;;;;5092087;28;20024;-75
2022/12/21 08:51:24;;;;;;;2.85;1.30;;;10.70;99.90;;;;;;5090742;28;20115;-75
2022/12/21 08:53:50;;;;;;;6.72;1.70;;;10.80;99.90;;;;;;5089691;28;20496;-75
2022/12/21 08:56:16;;;;;;;9.32;2.30;;;10.80;99.90;;;;;;5108793;28;20028;-75
2022/12/21 08:58:41;;;;;;;4.63;1.55;;;10.80;99.90;;;;;;5106236;28;20102;-75
2022/12/21 09:01:07;;;;;;;4.38;1.80;;;10.80;99.90;;;;;;5102195;28;20020;-74
2022/12/21 09:03:32;;;;;;;5.28;1.73;;;10.80;99.90;;;;;;5101997;28;20024;-74
2022/12/21 09:06:02;;;;;;;3.75;1.67;;;10.80;99.90;;;;;;5109564;28;20058;-74
2022/12/21 09:08:28;;;;;;;4.90;1.73;;;10.80;99.90;;;;;;5111877;27;20491;-74
2022/12/21 09:11:10;;;;;;;3.92;1.75;;;10.80;99.90;;;;;;5094230;28;20020;-75
2022/12/21 09:13:36;;;;;;;;;;;10.90;99.90;;;;;;5096000;28;20077;-74
2022/12/21 09:16:03;;;;;;;4.10;1.80;;;10.90;99.90;;;;;;5109834;28;19998;-77
2022/12/21 09:18:29;;;;;;;3.22;2.00;;;10.80;99.90;;;;;;5115361;28;20051;-75
2022/12/21 09:20:59;;;;;;;2.42;1.65;;;10.90;99.90;;;;;;5105978;28;20016;-74
2022/12/21 09:23:24;;;;;;;5.40;1.70;;;10.90;99.90;;;;;;5095443;28;20103;-74
2022/12/21 09:25:50;;;;;;;2.80;1.55;;;10.90;99.90;;;;;;5109658;28;20059;-77
2022/12/21 09:28:16;;;;;;;5.07;1.55;;;10.90;99.90;;;;;;5097023;28;20069;-74
2022/12/21 09:30:41;;;;;;;2.10;1.38;;;10.90;99.90;;;;;;5109793;28;20028;-74
2022/12/21 09:33:07;;;;;;;5.47;1.65;;;10.90;99.90;;;;;;5092365;28;20669;-74
2022/12/21 09:35:36;;;;;;;3.95;1.60;;;10.90;99.90;;;;;;5094608;28;20050;-74
2022/12/21 09:38:03;;;;;;;5.10;2.00;;;10.90;99.90;;;;;;5109499;28;20024;-74
2022/12/21 09:40:30;;;;;;;3.75;1.52;;;10.90;99.90;;;;;;5096906;28;20020;-74
2022/12/21 09:43:20;;;;;;;4.97;1.70;;;10.90;99.90;;;;;;5105672;28;20024;-74
2022/12/21 09:46:03;;;;;;;4.03;2.05;;;10.90;99.90;;;;;;5093480;28;20044;-74
2022/12/21 09:48:48;;;;;;;5.35;2.00;;;10.90;99.90;;;;;;5110477;27;20449;-74
2022/12/21 09:51:27;;;;;;;4.75;2.08;;;10.90;99.90;;;;;;5093016;28;20055;-75
2022/12/21 09:54:13;;;;;;;5.90;2.20;;;10.90;99.90;;;;;;5108479;28;20088;-75
2022/12/21 09:56:42;;;;;;;5.00;2.15;;;11.00;99.90;;;;;;5093389;28;20484;-74
2022/12/21 09:59:13;;;;;;;4.80;2.45;;;11.00;99.90;;;;;;5092571;28;20568;-74
2022/12/21 10:02:06;;;;;;;7.25;2.95;;;11.10;99.90;;;;;;5093211;28;20492;-74
2022/12/21 10:04:50;;;;;;;4.25;1.92;;;11.10;99.90;;;;;;5093289;28;20528;-74
2022/12/21 10:07:26;;;;;;;4.47;1.65;;;11.10;99.90;;;;;;5104390;28;20073;-74
2022/12/21 10:10:01;;;;;;;3.80;2.20;;;11.10;99.90;;;;;;5112917;28;20031;-74
2022/12/21 10:12:56;;;;;;;2.05;1.60;;;11.10;99.90;;;;;;5096505;28;20024;-74
2022/12/21 10:15:36;;;;;;;2.78;1.88;;;11.10;99.90;;;;;;5102943;28;20121;-74
2022/12/21 10:18:24;;;;;;;5.07;2.28;;;11.10;99.90;;;;;;5105268;28;20054;-74
2022/12/21 10:21:14;;;;;;;4.55;1.77;;;11.10;99.90;;;;;;5099975;28;20023;-77
2022/12/21 10:23:45;;;;;;;2.88;1.40;;;11.20;99.90;;;;;;5113349;28;20080;-74
2022/12/21 10:26:15;;;;;;;4.75;2.03;;;11.20;99.90;;;;;;5113915;28;20063;-74
2022/12/21 10:29:01;;;;;;;4.13;1.60;;;11.20;99.90;;;;;;5114252;28;20107;-74
2022/12/21 10:31:44;;;;;;;7.10;2.03;;;11.20;99.90;;;;;;5100832;28;20024;-74
2022/12/21 10:34:32;;;;;;;2.92;1.60;;;11.10;99.90;;;;;;5092791;28;20032;-74
2022/12/21 10:37:02;;;;;;;4.63;1.98;;;11.10;99.90;;;;;;5111932;28;20027;-74
2022/12/21 10:39:29;;;;;;;6.53;1.80;;;11.10;99.90;;;;;;5112593;28;20031;-75
2022/12/21 10:42:04;;;;;;;5.95;1.63;;;11.20;99.90;;;;;;5096357;28;20028;-74
2022/12/21 10:44:30;;;;;;;3.90;1.50;;;11.20;99.90;;;;;;5093780;28;20036;-74
2022/12/21 10:46:55;;;;;;;4.60;1.60;;;11.20;99.90;;;;;;5093550;28;20038;-75
2022/12/21 10:49:34;;;;;;;6.30;1.80;;;11.20;99.90;;;;;;5114143;28;20032;-75
2022/12/21 10:52:50;;;;;;;4.22;1.40;;;11.20;99.90;;;;;;5095372;28;20020;-75
2022/12/21 10:55:18;;;;;;;2.22;1.50;;;11.20;99.90;;;;;;5095515;28;20097;-76
2022/12/21 10:57:49;;;;;;;5.38;1.60;;;11.20;99.90;;;;;;5106476;28;20031;-75
2022/12/21 11:00:30;;;;;;;2.47;1.48;;;11.20;99.90;;;;;;5110462;28;20217;-75
2022/12/21 11:02:59;;;;;;;2.38;1.75;;;11.20;99.90;;;;;;5090952;28;20032;-74
2022/12/21 11:05:30;;;;;;;2.13;1.50;;;11.20;99.90;;;;;;5091965;28;20031;-75
2022/12/21 11:08:16;;;;;;;3.05;1.52;;;11.20;99.90;;;;;;5091331;28;20051;-75
2022/12/21 11:10:47;;;;;;;5.43;1.80;;;11.30;99.90;;;;;;5097341;28;20020;-74
2022/12/21 11:13:14;;;;;;;3.47;1.65;;;11.20;99.90;;;;;;5101051;28;20362;-75
2022/12/21 11:15:53;;;;;;;5.68;1.98;;;11.30;99.90;;;;;;5105164;28;20044;-75
2022/12/21 11:18:43;;;;;;;2.55;1.40;;;11.30;99.90;;;;;;5094563;28;20076;-74
2022/12/21 11:21:42;;;;;;;3.28;1.40;;;11.30;99.90;;;;;;5110779;28;20023;-75
2022/12/21 11:24:18;;;;;;;4.75;1.70;;;11.40;99.90;;;;;;5093840;28;20032;-75
2022/12/21 11:26:48;;;;;;;3.65;1.60;;;11.40;99.90;;;;;;5105591;28;20110;-74
2022/12/21 11:29:22;;;;;;;7.10;1.70;;;11.50;99.90;;;;;;5100718;28;20106;-75
2022/12/21 11:31:48;;;;;;;5.40;1.65;;;11.40;99.90;;;;;;5096414;28;20457;-79
2022/12/21 11:34:36;;;;;;;4.15;1.90;;;11.40;99.90;;;;;;5109515;28;20114;-75
2022/12/21 11:37:06;;;;;;;5.60;1.63;;;11.50;99.90;;;;;;5102221;28;20052;-75
2022/12/21 11:39:32;;;;;;;4.85;1.70;;;11.40;99.90;;;;;;5103817;28;20027;-74
2022/12/21 11:41:57;;;;;;;1.60;1.50;;;11.40;99.90;;;;;;5095725;28;20377;-75
2022/12/21 11:44:25;;;;;;;4.75;1.50;;;11.40;99.90;;;;;;5090836;28;20139;-75
2022/12/21 11:47:23;;;;;;;3.33;1.60;;;11.40;99.90;;;;;;5091992;28;20028;-77
2022/12/21 11:50:22;;;;;;;3.35;1.40;;;11.40;99.90;;;;;;5088157;28;20051;-79
2022/12/21 11:53:17;;;;;;;4.25;1.48;;;11.50;99.90;;;;;;5090973;28;20024;-79
2022/12/21 11:56:09;;;;;;;2.63;1.38;;;11.50;99.90;;;;;;5096938;28;20119;-75
2022/12/21 11:58:54;;;;;;;3.72;1.48;;;11.50;99.90;;;;;;5095685;28;20030;-76
2022/12/21 12:01:56;;;;;;;3.38;1.55;;;11.60;99.90;;;;;;5113097;28;20107;-75
2022/12/21 12:04:56;;;;;;;3.05;1.33;;;11.60;99.90;;;;;;5108928;28;20062;-74
2022/12/21 12:07:33;;;;;;;2.42;1.35;;;11.60;99.90;;;;;;5092153;28;20385;-75
2022/12/21 12:10:11;;;;;;;2.78;1.48;;;11.60;99.90;;;;;;5107678;28;20020;-74
2022/12/21 12:12:43;;;;;;;3.22;1.45;;;11.70;99.90;;;;;;5091189;28;20453;-75
2022/12/21 12:15:29;;;;;;;2.67;1.38;;;11.80;99.90;;;;;;5099217;28;20062;-75
2022/12/21 12:17:57;;;;;;;2.40;1.20;;;11.80;99.90;;;;;;5109322;28;20052;-75
2022/12/21 12:20:50;;;;;;;2.47;1.50;;;11.90;99.90;;;;;;5112441;28;20030;-74
2022/12/21 12:23:57;;;;;;;2.85;1.33;;;12.00;99.90;;;;;;5110556;28;20077;-74
2022/12/21 12:26:52;;;;;;;2.92;1.38;;;12.00;99.90;;;;;;5038968;28;20030;-74
2022/12/21 12:29:28;;;;;;;4.22;1.20;;;12.10;99.90;;;;;;5020085;28;20030;-74
2022/12/21 12:32:21;;;;;;;3.30;1.50;;;12.20;99.90;;;;;;5105370;28;20556;-75
2022/12/21 12:35:27;;;;;;;1.60;1.00;;;12.20;99.90;;;;;;5100133;28;20034;-74
2022/12/21 12:38:12;;;;;;;4.10;1.30;;;12.10;99.90;;;;;;5114746;28;20289;-75
2022/12/21 12:40:43;;;;;;;2.67;1.23;;;12.10;99.90;;;;;;5094872;28;20060;-74
2022/12/21 12:43:50;;;;;;;4.28;1.67;;;12.10;99.90;;;;;;5103334;28;20041;-75
2022/12/21 12:46:43;;;;;;;2.72;1.30;;;12.00;99.90;;;;;;5083162;28;20040;-74
2022/12/21 12:49:46;;;;;;;3.20;1.38;;;12.00;99.90;;;;;;5102607;28;20023;-75
2022/12/21 12:52:23;;;;;;;4.68;1.48;;;12.10;99.90;;;;;;5097048;28;20077;-74
2022/12/21 12:55:04;;;;;;;3.70;1.27;;;12.20;99.90;;;;;;5115683;28;20055;-77
2022/12/21 12:57:35;;;;;;;5.95;1.33;;;12.30;99.90;;;;;;5102317;28;20061;-74
2022/12/21 13:00:11;;;;;;;3.47;1.40;;;12.40;99.90;;;;;;5112265;28;20028;-74
2022/12/21 13:02:42;;;;;;;6.60;1.60;;;12.40;99.90;;;;;;5099270;28;20161;-74
2022/12/21 13:05:11;;;;;;;2.65;1.45;;;12.40;99.90;;;;;;5104833;28;20120;-74
2022/12/21 13:08:16;;;;;;;4.95;1.52;;;12.30;99.90;;;;;;5108814;28;20080;-75
2022/12/21 13:10:50;;;;;;;4.28;1.52;;;12.40;99.90;;;;;;5095705;28;20024;-74
2022/12/21 13:13:31;;;;;;;10.57;4.00;;;12.40;99.90;;;;;;5104267;28;20023;-74
2022/12/21 13:16:16;;;;;;;39.40;13.75;;;12.50;99.90;;;;;;5113818;28;20115;-74
2022/12/21 13:18:50;;;;;;;10.25;4.22;;;12.50;99.90;;;;;;5112024;28;20131;-74
2022/12/21 13:21:17;;;;;;;7.00;3.25;;;12.50;99.90;;;;;;5103406;28;20122;-74
2022/12/21 13:23:56;;;;;;;6.10;2.88;;;12.50;99.90;;;;;;5108954;28;20023;-74
2022/12/21 13:26:30;;;;;;;5.13;2.45;;;12.40;99.90;;;;;;5096980;28;20412;-74
2022/12/21 13:29:12;;;;;;;5.07;2.40;;;12.40;99.90;;;;;;5105698;28;20030;-75
2022/12/21 13:31:53;;;;;;;2.97;1.80;;;12.40;99.90;;;;;;5107175;28;20027;-75
2022/12/21 13:34:46;;;;;;;3.07;1.70;;;12.40;99.90;;;;;;5111400;28;20041;-74